Time;durP1;ratioP1;P1;durP2;ratioP2;P2;SDS_P1;SDS_P2;PMS_P1;PMS_P2;Temp;Humidity;BMP_temperature;BMP_pressure;BME280_temperature;BME280_humidity;BME280_pressure;Samples;Min_cycle;Max_cycle;Signal;HPM_P1;HPM_P2
2021/12/05 00:18:30;;;;;;;39.53;22.80;;;;;;;-2.80;78.46;99425.13;3569131;78;20998;-76
2021/12/05 00:23:20;;;;;;;42.30;25.17;;;;;;;-2.77;78.57;99421.85;3559011;78;20996;-77
2021/12/05 00:59:01;;;;;;;48.40;26.03;;;;;;;-2.86;78.59;99441.38;3575155;79;21520;-76
2021/12/05 01:13:43;;;;;;;46.25;24.30;;;;;;;-3.03;78.36;99444.73;3574571;79;20963;-75
2021/12/05 01:18:32;;;;;;;36.23;21.77;;;;;;;-3.10;78.52;99444.41;3570736;79;21023;-76
2021/12/05 01:23:52;;;;;;;36.85;21.33;;;;;;;-3.18;78.15;99448.25;3549545;79;20897;-77
2021/12/05 01:34:13;;;;;;;39.45;22.17;;;;;;;-3.28;78.45;99453.64;3571215;79;20944;-77
2021/12/05 01:39:04;;;;;;;36.65;20.68;;;;;;;-3.35;78.42;99456.66;3535753;79;22001;-77
2021/12/05 01:59:13;;;;;;;34.60;19.60;;;;;;;-3.56;78.15;99444.60;3598918;79;21483;-77
2021/12/05 02:40:28;;;;;;;36.95;21.23;;;;;;;-3.92;77.78;99438.41;3569990;79;21010;-76
2021/12/05 02:45:14;;;;;;;36.65;18.85;;;;;;;-4.00;78.18;99458.33;3557909;79;22063;-77
2021/12/05 02:50:09;;;;;;;33.30;18.42;;;;;;;-4.02;77.98;99463.72;3597184;79;20952;-76
2021/12/05 02:55:09;;;;;;;31.85;20.35;;;;;;;-4.05;77.93;99458.47;3552887;79;20960;-77
2021/12/05 03:00:07;;;;;;;36.93;19.52;;;;;;;-4.11;77.92;99456.88;3559856;79;20976;-77
2021/12/05 03:04:58;;;;;;;36.77;19.15;;;;;;;-4.14;78.10;99466.84;3542942;79;20983;-77
2021/12/05 03:09:48;;;;;;;34.67;18.87;;;;;;;-4.17;78.17;99453.98;3515766;79;21010;-77
2021/12/05 03:14:39;;;;;;;33.50;18.48;;;;;;;-4.22;78.04;99449.53;3560967;79;20983;-77
2021/12/05 03:19:31;;;;;;;30.50;17.87;;;;;;;-4.23;77.91;99441.83;3574914;79;20948;-76
2021/12/05 03:24:24;;;;;;;34.48;19.42;;;;;;;-4.26;78.22;99432.36;3543485;79;21489;-77
2021/12/05 03:29:20;;;;;;;32.83;18.60;;;;;;;-4.21;78.28;99430.95;3505685;79;20960;-76
2021/12/05 03:34:16;;;;;;;32.42;19.70;;;;;;;-4.20;78.60;99426.78;3551872;79;22036;-76
2021/12/05 03:39:10;;;;;;;25.27;15.10;;;;;;;-4.15;78.54;99425.73;3528448;79;20959;-78
2021/12/05 03:44:05;;;;;;;35.68;19.60;;;;;;;-4.13;78.48;99426.69;3501637;79;21995;-77
2021/12/05 03:49:02;;;;;;;31.85;19.02;;;;;;;-4.11;78.64;99421.33;3539202;79;20959;-77
2021/12/05 03:53:55;;;;;;;34.18;19.80;;;;;;;-4.08;78.92;99426.55;3557802;79;20963;-77
2021/12/05 03:58:49;;;;;;;32.38;20.88;;;;;;;-4.06;78.86;99449.08;3538404;79;21220;-77
2021/12/05 04:03:46;;;;;;;33.78;20.12;;;;;;;-4.07;78.68;99427.05;3514734;79;32494;-77
2021/12/05 04:08:41;;;;;;;32.98;18.82;;;;;;;-4.08;78.75;99424.02;3536070;79;21010;-77
2021/12/05 04:13:33;;;;;;;34.43;20.60;;;;;;;-4.04;79.28;99418.33;3553949;79;20994;-77
2021/12/05 04:18:25;;;;;;;33.67;19.87;;;;;;;-4.01;78.94;99421.02;3579662;79;20979;-77
2021/12/05 04:23:16;;;;;;;37.75;21.05;;;;;;;-4.03;79.01;99425.14;3553763;79;21140;-78
2021/12/05 04:28:09;;;;;;;33.13;19.80;;;;;;;-4.04;79.16;99438.64;3568915;79;20956;-77
2021/12/05 04:33:02;;;;;;;39.38;20.45;;;;;;;-4.03;79.51;99448.86;3560450;79;20909;-77
2021/12/05 04:37:53;;;;;;;30.97;20.08;;;;;;;-3.97;79.71;99446.17;3563698;79;20975;-77
2021/12/05 04:42:46;;;;;;;36.77;20.57;;;;;;;-3.95;79.59;99445.48;3546250;79;20922;-77
2021/12/05 04:47:40;;;;;;;37.45;19.98;;;;;;;-3.95;79.50;99451.84;3549682;79;21178;-77
2021/12/05 04:52:32;;;;;;;34.65;20.12;;;;;;;-3.97;79.26;99472.47;3550083;79;20951;-77
2021/12/05 04:57:23;;;;;;;43.35;22.65;;;;;;;-3.96;79.65;99460.23;3565034;79;22089;-77
2021/12/05 05:02:18;;;;;;;37.85;21.57;;;;;;;-3.92;79.79;99454.52;3553851;79;21461;-77
2021/12/05 05:07:19;;;;;;;34.08;20.02;;;;;;;-3.94;79.34;99464.99;3550237;79;21011;-77
2021/12/05 05:12:08;;;;;;;34.08;19.82;;;;;;;-3.99;79.30;99478.23;3554935;79;20951;-77
2021/12/05 05:16:59;;;;;;;33.50;19.23;;;;;;;-4.02;79.38;99475.14;3529028;79;20931;-77
2021/12/05 05:27:32;;;;;;;34.83;21.60;;;;;;;-4.07;79.56;99485.44;3521815;79;20917;-77
2021/12/05 05:47:35;;;;;;;38.50;22.95;;;;;;;-3.93;79.78;99470.56;3530609;79;20932;-76
2021/12/05 05:52:21;;;;;;;37.17;22.30;;;;;;;-3.86;80.17;99452.33;3523487;79;20996;-77
2021/12/05 06:07:00;;;;;;;34.00;21.23;;;;;;;-3.62;80.28;99451.87;3505005;79;21422;-76
2021/12/05 06:11:51;;;;;;;36.38;19.85;;;;;;;-3.53;80.30;99461.25;3538939;79;20954;-77
2021/12/05 06:16:42;;;;;;;30.02;19.17;;;;;;;-3.43;80.31;99463.00;3562318;80;20976;-77
2021/12/05 06:21:34;;;;;;;39.42;23.92;;;;;;;-3.38;80.29;99465.39;3545848;80;20951;-77
2021/12/05 06:26:25;;;;;;;35.03;21.07;;;;;;;-3.33;80.31;99466.10;3483967;81;21822;-78
2021/12/05 06:46:37;;;;;;;37.35;21.45;;;;;;;-3.23;80.08;99476.38;3457478;81;20986;-77
2021/12/05 06:51:30;;;;;;;39.18;23.18;;;;;;;-3.20;80.19;99475.27;3431844;78;21513;-77
2021/12/05 06:56:22;;;;;;;43.30;23.75;;;;;;;-3.14;80.23;99475.57;3480611;79;20897;-77
2021/12/05 07:01:15;;;;;;;41.02;23.57;;;;;;;-3.06;80.22;99478.50;3475080;79;21113;-78
2021/12/05 07:06:20;;;;;;;39.48;23.07;;;;;;;-2.98;80.19;99481.05;3494911;80;21410;-77
2021/12/05 07:11:17;;;;;;;34.50;22.13;;;;;;;-2.89;80.12;99486.59;3475289;79;21516;-78
2021/12/05 07:16:24;;;;;;;40.90;23.10;;;;;;;-2.77;79.91;99493.98;3537082;79;21015;-77
2021/12/05 07:21:36;;;;;;;35.55;22.02;;;;;;;-2.71;79.74;99498.50;3503660;80;21074;-77
2021/12/05 07:41:53;;;;;;;33.58;21.30;;;;;;;-2.43;79.64;99522.39;3543476;79;21018;-77
2021/12/05 07:46:41;;;;;;;35.08;22.82;;;;;;;-2.35;79.40;99529.13;3547094;79;20973;-78
2021/12/05 07:51:37;;;;;;;37.90;23.38;;;;;;;-2.25;79.37;99527.89;3508578;79;20912;-78
2021/12/05 08:14:23;;;;;;;39.27;23.40;;;;;;;-2.02;79.20;99518.44;3533339;79;21050;-77
2021/12/05 08:16:31;;;;;;;38.58;22.27;;;;;;;-1.62;78.76;99517.76;3518827;77;20960;-76
2021/12/05 08:21:22;;;;;;;32.98;20.97;;;;;;;-1.43;78.54;99523.69;3506241;78;21009;-77
2021/12/05 08:26:19;;;;;;;33.73;21.90;;;;;;;-1.26;78.42;99515.13;3525234;79;20911;-77
2021/12/05 08:31:17;;;;;;;30.97;20.62;;;;;;;-1.06;78.28;99530.45;3428339;82;22011;-77
2021/12/05 08:36:19;;;;;;;32.13;19.73;;;;;;;-0.87;78.12;99533.02;3511874;80;20950;-77
2021/12/05 09:22:49;;;;;;;30.45;20.12;;;;;;;0.67;75.68;99530.28;3438544;80;21293;-76
2021/12/05 09:53:35;;;;;;;32.93;20.65;;;;;;;0.91;75.30;99533.27;3449346;79;20976;-77
2021/12/05 10:06:40;;;;;;;28.90;19.45;;;;;;;1.33;74.63;99524.98;3475631;80;20961;-77
2021/12/05 10:08:41;;;;;;;31.07;18.90;;;;;;;1.68;74.02;99522.77;3488274;80;20982;-77
2021/12/05 10:13:31;;;;;;;26.27;17.30;;;;;;;1.73;73.32;99524.19;3457467;79;21142;-77
2021/12/05 10:34:05;;;;;;;30.68;18.48;;;;;;;1.27;73.59;99522.61;3540304;79;20952;-77
2021/12/05 10:38:54;;;;;;;28.77;18.42;;;;;;;1.17;73.83;99521.84;3493081;79;21927;-77
2021/12/05 10:43:49;;;;;;;29.25;18.57;;;;;;;1.12;73.96;99522.53;3517270;79;20928;-77
2021/12/05 10:48:46;;;;;;;28.20;20.08;;;;;;;1.04;73.66;99527.80;3526674;79;20944;-77
2021/12/05 10:53:47;;;;;;;28.73;19.40;;;;;;;0.96;73.97;99522.80;3567192;78;20960;-77
2021/12/05 10:59:08;;;;;;;30.23;18.90;;;;;;;0.87;73.92;99520.78;3569768;78;20913;-77
2021/12/05 11:04:18;;;;;;;32.15;18.52;;;;;;;0.81;73.79;99519.70;3574422;78;21251;-77
2021/12/05 11:09:29;;;;;;;29.23;18.90;;;;;;;0.77;73.88;99511.05;3522838;79;20964;-77
2021/12/05 11:14:27;;;;;;;27.45;18.12;;;;;;;0.76;74.03;99512.70;3518454;79;20870;-78
2021/12/05 11:19:24;;;;;;;;;;;;;;;0.79;74.18;99514.91;3537592;79;21007;-78
2021/12/05 11:24:24;;;;;;;31.13;18.50;;;;;;;0.84;73.75;99510.83;3575874;79;21070;-78
2021/12/05 11:29:15;;;;;;;28.98;18.80;;;;;;;0.80;73.94;99515.39;3532724;79;21167;-78
2021/12/05 11:34:06;;;;;;;24.57;17.00;;;;;;;0.80;74.09;99508.98;3510378;77;20994;-77
2021/12/05 11:38:57;;;;;;;27.32;17.17;;;;;;;0.74;74.04;99518.18;3521551;77;21178;-76
2021/12/05 11:43:54;;;;;;;26.48;16.77;;;;;;;0.69;74.25;99520.97;3513143;79;21552;-77
2021/12/05 11:48:53;;;;;;;28.98;17.65;;;;;;;0.64;74.41;99526.31;3561591;79;20975;-77
2021/12/05 11:53:50;;;;;;;27.35;17.48;;;;;;;0.59;74.49;99522.74;3529831;79;21440;-77
2021/12/05 11:58:42;;;;;;;28.30;18.73;;;;;;;0.53;74.54;99519.94;3564567;77;21306;-77
2021/12/05 12:03:36;;;;;;;26.85;18.37;;;;;;;0.48;74.49;99516.33;3536256;78;20910;-77
2021/12/05 12:08:28;;;;;;;27.42;18.25;;;;;;;0.43;74.76;99510.16;3533155;78;21533;-77
2021/12/05 12:13:23;;;;;;;25.60;16.45;;;;;;;0.40;74.70;99507.51;3566087;78;20949;-78
2021/12/05 12:18:24;;;;;;;22.22;15.18;;;;;;;0.35;74.72;99494.12;3553973;78;21098;-78
2021/12/05 12:23:10;;;;;;;24.18;16.82;;;;;;;0.34;74.71;99498.79;3545166;78;21042;-77
2021/12/05 12:28:05;;;;;;;23.52;15.60;;;;;;;0.34;74.81;99500.06;3492383;79;20960;-77
2021/12/05 12:33:04;;;;;;;26.57;17.42;;;;;;;0.41;74.83;99499.87;3506434;79;20955;-77
2021/12/05 12:38:09;;;;;;;28.40;17.65;;;;;;;0.50;75.04;99509.58;3526227;79;20941;-77
2021/12/05 12:43:00;;;;;;;30.88;19.80;;;;;;;0.51;75.15;99495.98;3481900;80;20975;-77
2021/12/05 12:47:56;;;;;;;35.28;23.12;;;;;;;0.51;75.37;99494.30;3481963;79;21446;-77
2021/12/05 12:53:10;;;;;;;33.35;21.05;;;;;;;0.52;75.79;99505.39;3539050;78;20957;-78
2021/12/05 12:58:06;;;;;;;32.45;19.50;;;;;;;0.54;76.02;99513.60;3505664;80;20902;-77
2021/12/05 13:03:12;;;;;;;34.48;20.30;;;;;;;0.51;76.37;99519.88;3487830;79;20974;-77
2021/12/05 13:13:19;;;;;;;30.08;20.25;;;;;;;0.50;76.78;99513.03;3554148;78;21013;-76
2021/12/05 13:18:26;;;;;;;34.35;22.35;;;;;;;0.48;76.90;99521.44;3469337;78;20910;-74
2021/12/05 13:23:50;;;;;;;33.00;21.05;;;;;;;0.44;77.14;99533.66;3521066;79;22167;-76
2021/12/05 13:29:15;;;;;;;31.57;21.00;;;;;;;0.40;77.30;99540.75;3543842;77;21215;-75
2021/12/05 13:34:30;;;;;;;39.65;23.57;;;;;;;0.33;77.62;99544.33;3567470;78;21015;-75
2021/12/05 13:39:56;;;;;;;38.20;23.83;;;;;;;0.28;77.84;99547.52;3569765;77;22195;-75
2021/12/05 13:45:25;;;;;;;35.80;22.73;;;;;;;0.24;78.11;99567.41;3581555;78;20904;-74
2021/12/05 13:50:22;;;;;;;39.20;23.55;;;;;;;0.22;78.36;99576.28;3563593;78;20963;-75
2021/12/05 13:55:53;;;;;;;33.45;21.68;;;;;;;0.21;78.56;99586.03;3574553;78;20939;-74
2021/12/05 14:01:02;;;;;;;38.73;25.23;;;;;;;0.18;78.72;99588.48;3531524;78;21140;-74
2021/12/05 14:05:53;;;;;;;38.58;24.00;;;;;;;0.14;78.93;99590.42;3562027;79;21489;-74
2021/12/05 14:10:44;;;;;;;37.23;24.52;;;;;;;0.12;79.15;99593.33;3544605;78;20935;-74
2021/12/05 14:15:36;;;;;;;35.25;22.32;;;;;;;0.11;79.35;99594.16;3537281;78;21374;-74
2021/12/05 14:20:29;;;;;;;36.85;24.35;;;;;;;0.11;79.47;99590.33;3533213;77;20979;-75
2021/12/05 14:25:24;;;;;;;39.08;24.60;;;;;;;0.05;79.54;99596.03;3541227;79;20997;-74
2021/12/05 14:30:20;;;;;;;39.85;25.90;;;;;;;0.01;79.78;99599.28;3508235;79;21121;-75
2021/12/05 14:35:16;;;;;;;45.90;27.55;;;;;;;-0.02;79.93;99593.66;3483827;80;21445;-75
2021/12/05 14:40:12;;;;;;;41.53;25.65;;;;;;;-0.01;80.15;99597.94;3522966;79;20979;-74
2021/12/05 14:45:21;;;;;;;40.33;26.27;;;;;;;-0.01;80.28;99593.23;3572779;78;21469;-75
2021/12/05 14:50:27;;;;;;;39.33;27.48;;;;;;;-0.03;80.40;99609.78;3587005;78;21827;-75
2021/12/05 14:55:22;;;;;;;47.67;30.08;;;;;;;-0.07;80.53;99601.53;3551706;79;20972;-75
2021/12/05 15:00:24;;;;;;;43.58;28.47;;;;;;;-0.08;80.61;99598.91;3461209;78;21117;-75
2021/12/05 15:05:18;;;;;;;39.63;25.65;;;;;;;-0.07;80.70;99604.47;3539001;78;20995;-75
2021/12/05 15:10:14;;;;;;;42.83;27.22;;;;;;;-0.09;80.80;99610.81;3560284;78;21470;-75
2021/12/05 15:15:11;;;;;;;46.45;28.55;;;;;;;-0.09;80.83;99610.81;3579906;78;21178;-74
2021/12/05 15:20:11;;;;;;;48.48;30.97;;;;;;;-0.11;80.95;99616.23;3560841;78;20959;-74
2021/12/05 15:25:07;;;;;;;41.13;26.77;;;;;;;-0.11;81.06;99616.23;3527385;78;20987;-75
2021/12/05 15:30:13;;;;;;;44.57;28.17;;;;;;;-0.11;81.13;99617.52;3582931;77;20936;-74
2021/12/05 15:35:10;;;;;;;41.20;27.50;;;;;;;-0.13;81.23;99617.86;3650728;76;20919;-75
2021/12/05 15:40:05;;;;;;;51.42;30.27;;;;;;;-0.11;81.33;99618.80;3621884;77;21786;-75
2021/12/05 15:44:59;;;;;;;45.98;29.48;;;;;;;-0.12;81.41;99624.73;3582087;77;20943;-75
2021/12/05 15:50:14;;;;;;;49.15;31.15;;;;;;;-0.12;81.56;99622.17;3631600;77;21468;-75
2021/12/05 15:55:29;;;;;;;44.80;30.95;;;;;;;-0.10;81.63;99626.95;3632429;76;20937;-75
2021/12/05 16:00:25;;;;;;;44.13;27.93;;;;;;;-0.07;81.72;99624.53;3643145;76;20999;-75
2021/12/05 16:05:20;;;;;;;40.37;27.77;;;;;;;-0.05;81.79;99628.02;3638663;76;21111;-75
2021/12/05 16:10:19;;;;;;;43.10;29.35;;;;;;;-0.03;81.82;99625.53;3610582;76;21602;-75
2021/12/05 16:15:11;;;;;;;41.35;28.65;;;;;;;-0.01;81.88;99632.84;3578582;76;20941;-76
2021/12/05 16:20:22;;;;;;;41.98;28.80;;;;;;;0.01;81.92;99639.31;3574326;76;20878;-76
2021/12/05 16:25:18;;;;;;;41.53;29.05;;;;;;;0.03;81.93;99649.19;3602184;77;21445;-76
2021/12/05 16:30:23;;;;;;;43.45;29.82;;;;;;;0.03;81.96;99646.62;3483170;80;21141;-75
2021/12/05 16:35:31;;;;;;;43.13;27.80;;;;;;;0.05;82.08;99641.17;3448717;80;20956;-75
2021/12/05 16:40:23;;;;;;;40.03;26.62;;;;;;;0.05;82.10;99637.34;3432837;81;20955;-76
2021/12/05 16:45:16;;;;;;;41.28;27.98;;;;;;;0.06;82.17;99642.94;3403257;81;21090;-77
2021/12/05 16:50:13;;;;;;;46.02;29.15;;;;;;;0.05;82.14;99639.89;3432779;81;20977;-75
2021/12/05 16:55:15;;;;;;;43.25;31.02;;;;;;;0.06;82.23;99646.35;3412029;81;20963;-75
2021/12/05 17:00:10;;;;;;;44.13;30.15;;;;;;;0.09;82.29;99643.03;3405658;81;20978;-75
2021/12/05 17:05:21;;;;;;;41.63;28.90;;;;;;;0.12;82.31;99653.40;3378745;82;20972;-75
2021/12/05 17:10:23;;;;;;;41.68;28.20;;;;;;;0.13;82.30;99660.27;3438035;81;21113;-75
2021/12/05 17:15:24;;;;;;;43.98;29.57;;;;;;;0.14;82.37;99673.50;3454517;81;21153;-76
2021/12/05 17:20:26;;;;;;;43.00;29.45;;;;;;;0.13;82.39;99663.69;3470559;80;21601;-75
2021/12/05 17:25:43;;;;;;;47.65;30.32;;;;;;;0.12;82.44;99664.90;3470322;80;21015;-75
2021/12/05 17:30:36;;;;;;;43.60;30.43;;;;;;;0.13;82.53;99665.38;3485729;78;20986;-75
2021/12/05 17:35:30;;;;;;;41.65;30.40;;;;;;;0.14;82.56;99669.28;3545939;79;20904;-75
2021/12/05 17:40:22;;;;;;;41.65;28.25;;;;;;;0.16;82.58;99674.44;3547726;79;20884;-75
2021/12/05 17:45:16;;;;;;;42.85;28.70;;;;;;;0.18;82.63;99672.84;3566028;78;21240;-76
2021/12/05 17:50:12;;;;;;;40.23;26.42;;;;;;;0.18;82.62;99673.70;3527965;79;20928;-75
2021/12/05 17:55:14;;;;;;;41.03;26.67;;;;;;;0.21;82.63;99675.50;3584637;79;20937;-75
2021/12/05 18:04:55;;;;;;;41.28;26.97;;;;;;;0.21;82.68;99667.84;3581825;79;20927;-76
2021/12/05 18:09:47;;;;;;;38.48;26.93;;;;;;;0.20;82.73;99671.22;3571519;77;21194;-75
2021/12/05 18:14:38;;;;;;;40.35;26.82;;;;;;;0.20;82.75;99664.83;3605085;77;20956;-75
2021/12/05 18:19:30;;;;;;;42.48;26.35;;;;;;;0.21;82.79;99655.05;3609078;77;20906;-75
2021/12/05 18:24:24;;;;;;;36.75;25.27;;;;;;;0.19;82.83;99649.87;3585936;77;21121;-75
2021/12/05 18:29:17;;;;;;;39.27;27.37;;;;;;;0.20;82.85;99649.49;3595412;77;21014;-76
2021/12/05 18:34:15;;;;;;;38.78;24.67;;;;;;;0.21;82.91;99658.89;3608531;77;21004;-75
2021/12/05 18:39:11;;;;;;;43.42;26.37;;;;;;;0.21;82.92;99664.00;3571108;79;20904;-74
2021/12/05 18:44:11;;;;;;;37.87;24.17;;;;;;;0.22;82.96;99673.43;3576714;79;20916;-75
2021/12/05 18:48:58;;;;;;;40.25;26.30;;;;;;;0.24;82.99;99688.42;3515222;78;20939;-74
2021/12/05 18:53:50;;;;;;;39.03;25.75;;;;;;;0.26;82.98;99685.94;3556190;78;21018;-74
2021/12/05 18:58:42;;;;;;;38.60;27.17;;;;;;;0.25;82.94;99687.63;3552103;77;21456;-75
2021/12/05 19:13:57;;;;;;;41.68;26.90;;;;;;;0.26;83.04;99682.97;3549759;77;20980;-74
2021/12/05 19:18:48;;;;;;;41.40;27.90;;;;;;;0.29;83.05;99689.49;3569456;78;21038;-75
2021/12/05 19:23:39;;;;;;;41.53;28.02;;;;;;;0.31;83.06;99701.94;3545274;79;21480;-75
2021/12/05 19:28:31;;;;;;;39.48;26.50;;;;;;;0.32;83.07;99698.96;3565638;78;21013;-75
2021/12/05 19:33:29;;;;;;;39.92;26.75;;;;;;;0.33;83.04;99709.26;3525962;76;21047;-74
2021/12/05 19:38:23;;;;;;;;;;;;;;;0.35;83.03;99714.44;3558419;78;20897;-77
2021/12/05 19:43:13;;;;;;;40.63;25.25;;;;;;;0.35;83.04;99714.44;3570340;78;20172;-77
2021/12/05 19:48:08;;;;;;;40.50;27.22;;;;;;;0.32;83.04;99718.14;3574724;78;21412;-77
2021/12/05 19:53:00;;;;;;;39.20;27.22;;;;;;;0.32;83.11;99733.09;3577194;76;21288;-77
2021/12/05 19:57:51;;;;;;;41.33;26.57;;;;;;;0.31;83.13;99728.78;3568256;78;20974;-78
2021/12/05 20:02:44;;;;;;;48.10;29.92;;;;;;;0.32;83.20;99747.16;3554676;78;20895;-78
2021/12/05 20:07:37;;;;;;;44.18;28.90;;;;;;;0.33;83.14;99751.45;3599805;78;20959;-78
2021/12/05 20:12:30;;;;;;;45.80;28.42;;;;;;;0.35;83.21;99751.10;3543821;78;21019;-77
2021/12/05 20:17:21;;;;;;;42.27;28.75;;;;;;;0.35;83.22;99752.38;3567718;78;20958;-77
2021/12/05 20:22:12;;;;;;;45.48;30.52;;;;;;;0.36;83.24;99759.26;3591633;76;20931;-78
2021/12/05 20:27:07;;;;;;;50.92;30.32;;;;;;;0.35;83.27;99762.61;3537243;77;21366;-78
2021/12/05 20:31:58;;;;;;;50.92;32.95;;;;;;;0.36;83.31;99766.93;3560816;78;21463;-78
2021/12/05 20:36:49;;;;;;;52.43;32.20;;;;;;;0.36;83.32;99770.77;3543048;78;21023;-75
2021/12/05 20:41:43;;;;;;;51.58;32.40;;;;;;;0.37;83.40;99773.77;3561925;77;21449;-77
2021/12/05 20:46:34;;;;;;;49.48;32.65;;;;;;;0.38;83.40;99772.98;3550403;79;20989;-74
2021/12/05 20:51:29;;;;;;;51.37;33.40;;;;;;;0.37;83.41;99776.33;3514083;79;20972;-77
2021/12/05 20:56:22;;;;;;;46.53;31.23;;;;;;;0.38;83.48;99779.37;3517234;79;20931;-77
2021/12/05 21:01:13;;;;;;;51.35;33.30;;;;;;;0.42;83.53;99782.07;3536149;77;21146;-78
2021/12/05 21:06:07;;;;;;;57.90;36.40;;;;;;;0.42;83.52;99782.07;3534413;79;21443;-77
2021/12/05 21:10:59;;;;;;;52.78;33.42;;;;;;;0.44;83.55;99777.89;3489647;79;21426;-75
2021/12/05 21:15:52;;;;;;;54.70;32.65;;;;;;;0.45;83.57;99779.62;3540403;79;21017;-79
2021/12/05 21:20:45;;;;;;;54.58;33.88;;;;;;;0.43;83.60;99773.57;3546237;79;21010;-77
2021/12/05 21:25:39;;;;;;;56.18;34.00;;;;;;;0.40;83.61;99769.62;3519029;77;21035;-77
2021/12/05 21:30:30;;;;;;;52.93;33.00;;;;;;;0.40;83.70;99765.37;3516314;79;21082;-79
2021/12/05 21:35:25;;;;;;;48.98;30.85;;;;;;;0.41;83.78;99764.55;3509402;79;20975;-77
2021/12/05 21:40:22;;;;;;;51.73;30.30;;;;;;;0.41;83.77;99774.78;3501894;79;20955;-77
2021/12/05 21:45:16;;;;;;;46.83;30.67;;;;;;;0.43;83.87;99765.90;3545061;78;20963;-77
2021/12/05 21:50:11;;;;;;;53.35;31.75;;;;;;;0.43;83.85;99763.34;3483257;79;21154;-77
2021/12/05 21:55:04;;;;;;;47.95;30.37;;;;;;;0.41;83.88;99761.99;3454931;79;20954;-77
2021/12/05 21:59:55;;;;;;;46.13;28.20;;;;;;;0.41;83.94;99759.84;3482088;80;21457;-77
2021/12/05 22:04:46;;;;;;;43.92;29.90;;;;;;;0.41;83.99;99755.59;3443746;80;20936;-77
2021/12/05 22:09:38;;;;;;;44.13;28.95;;;;;;;0.44;83.98;99768.94;3449121;79;20952;-77
2021/12/05 22:14:29;;;;;;;44.85;27.35;;;;;;;0.45;84.00;99764.27;3433047;79;21526;-77
2021/12/05 22:19:20;;;;;;;39.80;26.85;;;;;;;0.47;84.00;99772.91;3450169;80;21003;-77
2021/12/05 22:24:16;;;;;;;46.05;27.82;;;;;;;0.46;84.01;99768.59;3469865;79;20967;-78
2021/12/05 22:29:09;;;;;;;41.42;27.10;;;;;;;0.47;84.00;99769.08;3474555;79;20962;-78
2021/12/05 22:34:02;;;;;;;41.50;26.05;;;;;;;0.48;84.04;99769.53;3548295;78;20938;-78
2021/12/05 22:38:54;;;;;;;42.30;27.10;;;;;;;0.47;84.01;99766.52;3507297;78;21090;-79
2021/12/05 22:43:47;;;;;;;38.67;24.80;;;;;;;0.48;84.03;99773.36;3531592;77;20938;-78
2021/12/05 22:48:39;;;;;;;45.17;26.68;;;;;;;0.48;84.01;99770.39;3503772;78;20900;-78
2021/12/05 22:53:30;;;;;;;38.80;24.35;;;;;;;0.50;84.06;99766.63;3513923;78;21174;-77
2021/12/05 22:58:22;;;;;;;33.83;23.67;;;;;;;0.50;84.02;99765.34;3543883;77;21027;-78
2021/12/05 23:03:21;;;;;;;36.68;23.45;;;;;;;0.51;84.04;99769.66;3484351;78;21180;-77
2021/12/05 23:08:13;;;;;;;38.38;25.77;;;;;;;0.51;84.03;99764.55;3568628;78;20991;-78
2021/12/05 23:13:04;;;;;;;37.93;25.45;;;;;;;0.51;84.06;99767.97;3527335;79;20946;-77
2021/12/05 23:17:56;;;;;;;39.58;25.45;;;;;;;0.49;84.03;99764.89;3542711;79;20995;-77
2021/12/05 23:22:48;;;;;;;38.10;24.98;;;;;;;0.49;84.10;99763.62;3536242;77;21422;-77
2021/12/05 23:27:39;;;;;;;35.52;22.32;;;;;;;0.48;84.17;99765.69;3518674;78;21542;-77
2021/12/05 23:32:31;;;;;;;38.40;23.32;;;;;;;0.49;84.15;99766.17;3510055;78;21015;-77
2021/12/05 23:37:23;;;;;;;34.75;22.73;;;;;;;0.50;84.18;99761.51;3540757;77;21002;-77
2021/12/05 23:42:14;;;;;;;36.28;21.12;;;;;;;0.51;84.13;99753.04;3538481;78;20978;-77
2021/12/05 23:47:06;;;;;;;33.50;21.45;;;;;;;0.48;84.14;99746.51;3481329;78;21495;-78
2021/12/05 23:51:57;;;;;;;36.33;24.65;;;;;;;0.46;84.19;99748.13;3498898;79;21405;-77
2021/12/05 23:56:49;;;;;;;33.18;20.77;;;;;;;0.45;84.27;99743.81;3566905;78;20900;-77
